createdAt,value
2018-08-04T00:00:30.821Z,101632.20
2018-08-04T00:03:00.091Z,101625.34
2018-08-04T00:05:29.382Z,101626.55
2018-08-04T00:07:58.657Z,101629.42
2018-08-04T00:10:28.016Z,101629.33
2018-08-04T00:12:57.363Z,101630.25
2018-08-04T00:15:26.717Z,101629.39
2018-08-04T00:17:56.026Z,101639.23
2018-08-04T00:20:25.310Z,101633.02
2018-08-04T00:22:55.746Z,101633.47
2018-08-04T00:25:25.022Z,101621.14
2018-08-04T00:27:54.283Z,101621.52
2018-08-04T00:30:23.593Z,101619.45
2018-08-04T00:32:52.844Z,101622.65
2018-08-04T00:35:22.145Z,101624.81
2018-08-04T00:37:51.563Z,101627.53
2018-08-04T00:40:26.647Z,101629.20
2018-08-04T00:42:56.327Z,101625.94
2018-08-04T00:45:25.613Z,101626.00
2018-08-04T00:47:54.906Z,101626.11
2018-08-04T00:50:24.225Z,101617.72
2018-08-04T00:52:53.485Z,101621.36
2018-08-04T00:55:23.837Z,101616.69
2018-08-04T00:57:53.151Z,101616.52
2018-08-04T01:00:22.414Z,101618.41
2018-08-04T01:02:51.775Z,101620.16
2018-08-04T01:05:21.484Z,101618.65
2018-08-04T01:07:50.782Z,101618.83
2018-08-04T01:10:20.046Z,101619.62
2018-08-04T01:12:49.332Z,101615.39
2018-08-04T01:15:18.742Z,101610.31
2018-08-04T01:17:48.023Z,101611.17
2018-08-04T01:20:17.306Z,101608.38
2018-08-04T01:22:46.599Z,101609.97
2018-08-04T01:25:15.848Z,101610.09
2018-08-04T01:27:45.958Z,101605.69
2018-08-04T01:30:15.245Z,101608.89
2018-08-04T01:32:44.538Z,101612.56
2018-08-04T01:35:13.890Z,101614.80
2018-08-04T01:37:43.760Z,101618.23
2018-08-04T01:40:12.988Z,101619.98
2018-08-04T01:42:42.310Z,101616.44
2018-08-04T01:45:11.575Z,101618.22
2018-08-04T01:47:40.844Z,101618.73
2018-08-04T01:50:10.353Z,101618.09
2018-08-04T01:52:39.650Z,101615.58
2018-08-04T01:55:09.002Z,101615.22
2018-08-04T01:57:38.267Z,101616.41
2018-08-04T02:00:08.335Z,101620.89
2018-08-04T02:02:37.579Z,101619.42
2018-08-04T02:05:07.300Z,101614.34
2018-08-04T02:07:36.563Z,101617.82
2018-08-04T02:10:05.978Z,101616.97
2018-08-04T02:12:35.538Z,101624.92
2018-08-04T02:15:04.808Z,101615.11
2018-08-04T02:17:34.038Z,101606.50
2018-08-04T02:20:03.321Z,101606.13
2018-08-04T02:22:32.805Z,101607.52
2018-08-04T02:25:02.050Z,101599.78
2018-08-04T02:27:31.348Z,101609.81
2018-08-04T02:30:00.740Z,101604.83
2018-08-04T02:32:30.021Z,101606.69
2018-08-04T02:34:59.824Z,101607.81
2018-08-04T02:37:29.131Z,101604.56
2018-08-04T02:39:58.732Z,101597.41
2018-08-04T02:42:28.006Z,101602.58
2018-08-04T02:44:57.300Z,101600.06
2018-08-04T02:47:26.576Z,101596.45
2018-08-04T02:49:55.944Z,101594.97
2018-08-04T02:52:25.212Z,101590.58
2018-08-04T02:54:54.221Z,101589.94
2018-08-04T02:57:23.848Z,101600.00
2018-08-04T02:59:53.205Z,101599.91
2018-08-04T03:02:22.466Z,101597.34
2018-08-04T03:04:51.798Z,101597.86
2018-08-04T03:07:21.068Z,101592.31
2018-08-04T03:09:50.313Z,101590.57
2018-08-04T03:12:19.600Z,101596.88
2018-08-04T03:14:49.047Z,101594.72
2018-08-04T03:17:18.297Z,101600.28
2018-08-04T03:19:48.220Z,101597.50
2018-08-04T03:22:17.483Z,101600.15
2018-08-04T03:24:46.988Z,101602.31
2018-08-04T03:27:16.284Z,101605.27
2018-08-04T03:29:45.573Z,101613.66
2018-08-04T03:32:14.838Z,101611.72
2018-08-04T03:34:44.112Z,101609.66
2018-08-04T03:37:13.435Z,101612.02
2018-08-04T03:39:42.801Z,101610.03
2018-08-04T03:42:13.474Z,101609.30
2018-08-04T03:44:42.736Z,101613.86
2018-08-04T03:47:12.014Z,101617.17
2018-08-04T03:49:42.163Z,101606.93
2018-08-04T03:52:11.398Z,101615.61
2018-08-04T03:54:40.671Z,101610.03
2018-08-04T03:57:09.938Z,101605.84
2018-08-04T03:59:39.393Z,101609.05
2018-08-04T04:02:08.778Z,101603.94
2018-08-04T04:04:38.507Z,101603.92
2018-08-04T04:07:08.390Z,101608.62
2018-08-04T04:09:37.630Z,101600.72
2018-08-04T04:12:06.955Z,101591.75
2018-08-04T04:14:36.246Z,101593.52
2018-08-04T04:17:05.552Z,101600.28
2018-08-04T04:19:34.810Z,101598.77
2018-08-04T04:22:04.102Z,101601.28
2018-08-04T04:24:33.327Z,101607.95
2018-08-04T04:27:02.994Z,101606.52
2018-08-04T04:29:32.227Z,101611.91
2018-08-04T04:32:01.510Z,101611.12
2018-08-04T04:34:30.936Z,101604.14
2018-08-04T04:37:00.288Z,101600.22
2018-08-04T04:39:29.498Z,101607.33
2018-08-04T04:41:58.791Z,101605.94
2018-08-04T04:44:28.067Z,101601.47
2018-08-04T04:46:57.391Z,101606.47
2018-08-04T04:49:27.544Z,101606.59
2018-08-04T04:51:56.818Z,101601.58
2018-08-04T04:54:26.058Z,101592.29
2018-08-04T04:56:55.314Z,101599.23
2018-08-04T04:59:24.575Z,101585.45
2018-08-04T05:01:53.843Z,101588.58
2018-08-04T05:04:23.134Z,101601.29
2018-08-04T05:06:52.387Z,101596.56
2018-08-04T05:09:21.675Z,101598.55
2018-08-04T05:11:51.465Z,101596.20
2018-08-04T05:14:20.704Z,101600.88
2018-08-04T05:16:49.974Z,101603.91
2018-08-04T05:19:19.291Z,101619.47
2018-08-04T05:21:48.535Z,101616.30
2018-08-04T05:24:18.159Z,101622.56
2018-08-04T05:26:47.463Z,101618.60
2018-08-04T05:29:16.699Z,101613.77
2018-08-04T05:31:45.967Z,101615.70
2018-08-04T05:34:15.810Z,101607.02
2018-08-04T05:36:45.062Z,101610.70
2018-08-04T05:39:14.595Z,101610.88
2018-08-04T05:41:43.931Z,101606.16
2018-08-04T05:44:13.192Z,101612.50
2018-08-04T05:46:42.444Z,101617.14
2018-08-04T05:49:11.770Z,101614.83
2018-08-04T05:51:41.001Z,101614.46
2018-08-04T05:54:10.260Z,101622.74
2018-08-04T05:56:39.925Z,101614.69
2018-08-04T05:59:09.162Z,101613.87
2018-08-04T06:01:38.477Z,101609.99
2018-08-04T06:04:08.054Z,101613.43
2018-08-04T06:06:37.359Z,101615.91
2018-08-04T06:09:09.959Z,101609.94
2018-08-04T06:11:40.075Z,101604.61
2018-08-04T06:14:09.353Z,101611.00
2018-08-04T06:16:38.765Z,101613.13
2018-08-04T06:19:08.043Z,101614.49
2018-08-04T06:21:37.290Z,101619.28
2018-08-04T06:24:06.605Z,101615.06
2018-08-04T06:26:36.102Z,101624.25
2018-08-04T06:29:05.542Z,101617.31
2018-08-04T06:31:35.113Z,101617.53
2018-08-04T06:34:04.383Z,101626.15
2018-08-04T06:36:33.902Z,101629.79
2018-08-04T06:39:04.653Z,101631.79
2018-08-04T06:41:33.989Z,101619.58
2018-08-04T06:44:03.252Z,101622.06
2018-08-04T06:46:32.576Z,101635.73
2018-08-04T06:49:02.088Z,101647.55
2018-08-04T06:51:31.914Z,101638.25
2018-08-04T06:54:01.472Z,101638.34
2018-08-04T06:56:31.028Z,101636.25
2018-08-04T06:59:00.474Z,101630.23
2018-08-04T07:01:30.577Z,101628.73
2018-08-04T07:03:59.938Z,101631.04
2018-08-04T07:06:29.282Z,101638.34
2018-08-04T07:08:58.833Z,101634.89
2018-08-04T07:11:28.280Z,101639.69
2018-08-04T07:13:57.548Z,101640.61
2018-08-04T07:16:26.900Z,101640.45
2018-08-04T07:18:56.185Z,101635.78
2018-08-04T07:21:25.503Z,101644.03
2018-08-04T07:23:55.315Z,101647.20
2018-08-04T07:26:24.666Z,101642.48
2018-08-04T07:28:54.083Z,101641.47
2018-08-04T07:31:23.408Z,101636.53
2018-08-04T07:33:52.770Z,101640.42
2018-08-04T07:36:22.450Z,101642.62
2018-08-04T07:38:51.783Z,101640.15
2018-08-04T07:41:21.288Z,101644.77
2018-08-04T07:43:50.690Z,101639.97
2018-08-04T07:46:20.918Z,101643.45
2018-08-04T07:48:51.195Z,101642.23
2018-08-04T07:51:20.528Z,101638.41
2018-08-04T07:53:49.922Z,101636.66
2018-08-04T07:56:19.321Z,101646.37
2018-08-04T07:58:48.806Z,101641.95
2018-08-04T08:01:18.186Z,101637.28
2018-08-04T08:03:47.508Z,101634.55
2018-08-04T08:06:16.879Z,101644.30
2018-08-04T08:08:46.446Z,101647.89
2018-08-04T08:11:15.860Z,101650.41
2018-08-04T08:13:45.123Z,101653.56
2018-08-04T08:16:14.519Z,101656.50
2018-08-04T08:18:43.831Z,101660.06
2018-08-04T08:21:13.261Z,101666.98
2018-08-04T08:23:42.657Z,101667.95
2018-08-04T08:26:14.512Z,101671.87
2018-08-04T08:28:44.339Z,101673.20
2018-08-04T08:31:13.692Z,101673.87
2018-08-04T08:33:43.028Z,101666.60
2018-08-04T08:36:12.150Z,101664.69
2018-08-04T08:38:41.523Z,101663.11
2018-08-04T08:41:10.833Z,101666.23
2018-08-04T08:43:40.229Z,101668.47
2018-08-04T08:46:09.919Z,101673.78
2018-08-04T08:48:39.226Z,101668.17
2018-08-04T08:51:08.705Z,101666.16
2018-08-04T08:53:38.129Z,101658.25
2018-08-04T08:56:07.485Z,101654.71
2018-08-04T08:58:36.886Z,101644.81
2018-08-04T09:01:06.186Z,101650.33
2018-08-04T09:03:35.648Z,101645.39
2018-08-04T09:06:05.176Z,101641.93
2018-08-04T09:08:34.685Z,101638.06
2018-08-04T09:11:03.957Z,101629.18
2018-08-04T09:13:33.616Z,101625.12
2018-08-04T09:16:02.910Z,101627.05
2018-08-04T09:18:32.315Z,101627.58
2018-08-04T09:21:01.724Z,101621.62
2018-08-04T09:23:31.236Z,101625.94
2018-08-04T09:26:00.623Z,101618.86
2018-08-04T09:28:29.956Z,101624.69
2018-08-04T09:30:59.373Z,101628.26
2018-08-04T09:33:28.698Z,101636.30
2018-08-04T09:35:58.193Z,101628.64
2018-08-04T09:38:27.833Z,101642.50
2018-08-04T09:40:57.449Z,101627.45
2018-08-04T09:43:26.807Z,101627.98
2018-08-04T09:45:56.106Z,101619.83
2018-08-04T09:48:25.889Z,101620.87
2018-08-04T09:50:55.257Z,101624.41
2018-08-04T09:53:24.558Z,101615.34
2018-08-04T09:55:53.912Z,101620.39
2018-08-04T09:58:23.432Z,101622.95
2018-08-04T10:00:58.086Z,101621.44
2018-08-04T10:03:27.454Z,101627.87
2018-08-04T10:05:56.765Z,101623.36
2018-08-04T10:08:26.140Z,101622.81
2018-08-04T10:10:55.480Z,101608.77
2018-08-04T10:13:24.767Z,101620.34
2018-08-04T10:15:54.078Z,101619.77
2018-08-04T10:18:23.541Z,101611.33
2018-08-04T10:20:52.994Z,101609.56
2018-08-04T10:23:22.255Z,101609.17
2018-08-04T10:25:51.767Z,101619.64
2018-08-04T10:28:21.455Z,101615.06
2018-08-04T10:30:50.758Z,101609.69
2018-08-04T10:33:20.084Z,101615.44
2018-08-04T10:35:49.415Z,101617.92
2018-08-04T10:38:18.783Z,101612.52
2018-08-04T10:40:48.160Z,101613.57
2018-08-04T10:44:18.735Z,101612.11
2018-08-04T10:46:48.150Z,101608.78
2018-08-04T10:49:17.533Z,101611.52
2018-08-04T10:51:46.815Z,101604.13
2018-08-04T10:54:16.136Z,101604.22
2018-08-04T10:56:45.420Z,101601.89
2018-08-04T10:59:14.738Z,101606.70
2018-08-04T11:01:44.400Z,101600.98
2018-08-04T11:04:13.788Z,101595.53
2018-08-04T11:06:43.089Z,101594.19
2018-08-04T11:09:12.662Z,101596.72
2018-08-04T11:11:41.980Z,101592.72
2018-08-04T11:14:11.225Z,101596.32
2018-08-04T11:16:41.349Z,101588.22
2018-08-04T11:19:10.687Z,101586.42
2018-08-04T11:21:40.081Z,101580.13
2018-08-04T11:24:09.796Z,101582.09
2018-08-04T11:26:39.157Z,101593.23
2018-08-04T11:29:08.470Z,101587.45
2018-08-04T11:31:37.827Z,101586.37
2018-08-04T11:34:07.200Z,101589.09
2018-08-04T11:36:36.491Z,101578.63
2018-08-04T11:39:09.378Z,101584.12
2018-08-04T11:41:38.806Z,101575.52
2018-08-04T11:44:08.454Z,101582.10
2018-08-04T11:46:38.163Z,101580.13
2018-08-04T11:49:07.777Z,101575.26
2018-08-04T11:51:37.316Z,101585.59
2018-08-04T11:54:06.613Z,101579.59
2018-08-04T11:56:35.927Z,101574.20
2018-08-04T11:59:05.244Z,101573.89
2018-08-04T12:01:34.588Z,101569.89
2018-08-04T12:04:03.608Z,101563.23
2018-08-04T12:06:33.215Z,101565.00
2018-08-04T12:09:02.884Z,101571.06
2018-08-04T12:11:32.220Z,101565.66
2018-08-04T12:14:01.539Z,101561.17
2018-08-04T12:16:30.863Z,101563.73
2018-08-04T12:19:00.117Z,101567.70
2018-08-04T12:21:29.456Z,101561.02
2018-08-04T12:23:58.844Z,101554.75
2018-08-04T12:26:28.291Z,101557.31
2018-08-04T12:28:57.595Z,101563.88
2018-08-04T12:31:27.387Z,101555.55
2018-08-04T12:33:56.603Z,101557.62
2018-08-04T12:36:25.894Z,101552.87
2018-08-04T12:38:55.572Z,101548.05
2018-08-04T12:41:24.887Z,101552.14
2018-08-04T12:43:54.379Z,101547.54
2018-08-04T12:46:23.716Z,101553.77
2018-08-04T12:48:53.185Z,101548.12
2018-08-04T12:51:22.471Z,101542.52
2018-08-04T12:53:51.875Z,101540.38
2018-08-04T12:56:21.194Z,101536.11
2018-08-04T12:58:50.490Z,101534.20
2018-08-04T13:01:19.833Z,101534.38
2018-08-04T13:03:49.199Z,101535.25
2018-08-04T13:06:18.423Z,101536.34
2018-08-04T13:08:47.786Z,101525.27
2018-08-04T13:11:17.097Z,101519.96
2018-08-04T13:13:46.360Z,101520.24
2018-08-04T13:16:16.273Z,101518.08
2018-08-04T13:18:45.579Z,101527.72
2018-08-04T13:21:14.840Z,101513.23
2018-08-04T13:23:44.163Z,101506.03
2018-08-04T13:26:13.463Z,101500.34
2018-08-04T13:28:42.899Z,101507.14
2018-08-04T13:31:12.947Z,101509.87
2018-08-04T13:33:42.253Z,101501.65
2018-08-04T13:36:11.551Z,101507.03
2018-08-04T13:38:41.489Z,101503.80
2018-08-04T13:41:10.874Z,101507.58
2018-08-04T13:43:40.217Z,101511.47
2018-08-04T13:46:09.425Z,101511.98
2018-08-04T13:48:38.842Z,101508.53
2018-08-04T13:51:08.177Z,101507.72
2018-08-04T13:53:37.521Z,101500.97
2018-08-04T13:56:07.448Z,101493.34
2018-08-04T13:58:36.732Z,101504.74
2018-08-04T14:01:06.768Z,101498.90
2018-08-04T14:03:36.318Z,101489.39
2018-08-04T14:06:06.444Z,101498.82
2018-08-04T14:08:35.769Z,101498.75
2018-08-04T14:11:05.094Z,101494.14
2018-08-04T14:13:34.429Z,101498.86
2018-08-04T14:16:03.811Z,101499.53
2018-08-04T14:18:32.832Z,101495.74
2018-08-04T14:21:02.140Z,101504.58
2018-08-04T14:23:31.594Z,101505.34
2018-08-04T14:26:01.070Z,101502.75
2018-08-04T14:28:30.605Z,101495.71
2018-08-04T14:30:59.881Z,101499.55
2018-08-04T14:33:29.160Z,101506.42
2018-08-04T14:35:58.704Z,101500.80
2018-08-04T14:38:28.047Z,101488.41
2018-08-04T14:40:57.448Z,101499.94
2018-08-04T14:43:26.491Z,101501.09
2018-08-04T14:45:56.446Z,101496.30
2018-08-04T14:48:25.718Z,101484.86
2018-08-04T14:50:55.573Z,101481.97
2018-08-04T14:53:24.985Z,101486.48
2018-08-04T14:55:54.536Z,101478.11
2018-08-04T14:58:24.015Z,101473.06
2018-08-04T15:00:53.323Z,101474.70
2018-08-04T15:03:22.564Z,101481.41
2018-08-04T15:05:52.111Z,101471.75
2018-08-04T15:08:21.995Z,101472.09
2018-08-04T15:10:51.540Z,101470.47
2018-08-04T15:13:21.026Z,101471.86
2018-08-04T15:15:50.632Z,101473.95
2018-08-04T15:18:19.974Z,101469.63
2018-08-04T15:20:50.879Z,101460.60
2018-08-04T15:23:19.965Z,101462.31
2018-08-04T15:25:49.297Z,101472.09
2018-08-04T15:28:18.615Z,101479.78
2018-08-04T15:30:48.170Z,101472.41
2018-08-04T15:33:17.439Z,101474.57
2018-08-04T15:35:46.927Z,101476.13
2018-08-04T15:38:16.224Z,101470.98
2018-08-04T15:40:45.832Z,101472.34
2018-08-04T15:43:15.104Z,101469.39
2018-08-04T15:45:44.462Z,101473.81
2018-08-04T15:48:13.756Z,101471.52
2018-08-04T15:50:43.006Z,101474.22
2018-08-04T15:53:12.710Z,101475.21
2018-08-04T15:55:42.056Z,101469.52
2018-08-04T15:58:11.340Z,101471.28
2018-08-04T16:00:41.455Z,101472.47
2018-08-04T16:03:10.734Z,101470.23
2018-08-04T16:05:40.031Z,101479.83
2018-08-04T16:08:09.354Z,101480.51
2018-08-04T16:10:38.684Z,101481.98
2018-08-04T16:13:07.936Z,101478.45
2018-08-04T16:15:37.486Z,101476.24
2018-08-04T16:18:06.789Z,101477.31
2018-08-04T16:20:36.059Z,101481.41
2018-08-04T16:23:05.490Z,101472.38
2018-08-04T16:25:34.827Z,101469.48
2018-08-04T16:28:04.217Z,101470.05
2018-08-04T16:30:33.549Z,101471.77
2018-08-04T16:33:02.837Z,101471.81
2018-08-04T16:35:32.139Z,101472.44
2018-08-04T16:38:01.607Z,101477.03
2018-08-04T16:40:30.841Z,101477.94
2018-08-04T16:43:00.132Z,101479.34
2018-08-04T16:45:29.426Z,101480.38
2018-08-04T16:47:59.008Z,101474.48
2018-08-04T16:50:28.305Z,101481.97
2018-08-04T16:52:57.603Z,101488.22
2018-08-04T16:55:26.934Z,101483.00
2018-08-04T16:57:56.229Z,101491.05
2018-08-04T17:00:26.082Z,101487.23
2018-08-04T17:02:55.504Z,101490.97
2018-08-04T17:05:24.555Z,101484.06
2018-08-04T17:07:53.859Z,101488.02
2018-08-04T17:10:24.353Z,101495.21
2018-08-04T17:12:53.690Z,101496.05
2018-08-04T17:15:23.008Z,101485.59
2018-08-04T17:17:52.307Z,101490.35
2018-08-04T17:20:21.601Z,101506.44
2018-08-04T17:22:51.100Z,101519.96
2018-08-04T17:25:20.616Z,101518.86
2018-08-04T17:27:49.895Z,101512.67
2018-08-04T17:30:19.228Z,101503.30
2018-08-04T17:32:48.524Z,101508.70
2018-08-04T17:35:17.840Z,101510.64
2018-08-04T17:37:47.072Z,101515.95
2018-08-04T17:40:16.577Z,101516.55
2018-08-04T17:42:46.306Z,101522.11
2018-08-04T17:45:15.785Z,101528.09
2018-08-04T17:47:45.086Z,101526.62
2018-08-04T17:50:14.411Z,101526.67
2018-08-04T17:52:43.791Z,101523.44
2018-08-04T17:55:13.222Z,101535.78
2018-08-04T17:57:42.880Z,101534.94
2018-08-04T18:00:12.284Z,101537.73
2018-08-04T18:02:41.910Z,101538.53
2018-08-04T18:05:11.300Z,101542.72
2018-08-04T18:07:40.715Z,101534.56
2018-08-04T18:10:10.213Z,101538.22
2018-08-04T18:12:39.800Z,101538.25
2018-08-04T18:15:09.490Z,101537.66
2018-08-04T18:17:38.968Z,101541.27
2018-08-04T18:20:08.288Z,101544.70
2018-08-04T18:22:37.623Z,101543.82
2018-08-04T18:25:07.131Z,101552.36
2018-08-04T18:27:36.450Z,101553.03
2018-08-04T18:30:05.707Z,101551.83
2018-08-04T18:32:34.926Z,101554.45
2018-08-04T18:35:04.316Z,101559.27
2018-08-04T18:37:33.490Z,101564.22
2018-08-04T18:40:02.893Z,101565.61
2018-08-04T18:42:32.198Z,101560.23
2018-08-04T18:45:01.700Z,101560.91
2018-08-04T18:47:31.020Z,101571.37
2018-08-04T18:50:00.523Z,101573.14
2018-08-04T18:52:30.159Z,101571.94
2018-08-04T18:54:59.474Z,101576.91
2018-08-04T18:57:28.834Z,101579.23
2018-08-04T18:59:58.772Z,101580.36
2018-08-04T19:02:28.130Z,101588.64
2018-08-04T19:04:57.570Z,101588.80
2018-08-04T19:07:27.018Z,101584.81
2018-08-04T19:09:56.305Z,101585.53
2018-08-04T19:12:25.689Z,101588.75
2018-08-04T19:14:55.276Z,101584.12
2018-08-04T19:17:24.664Z,101587.75
2018-08-04T19:19:54.003Z,101599.25
2018-08-04T19:22:23.333Z,101593.91
2018-08-04T19:24:52.479Z,101602.42
2018-08-04T19:27:21.893Z,101600.89
2018-08-04T19:29:51.363Z,101598.11
2018-08-04T19:32:20.651Z,101613.94
2018-08-04T19:34:50.236Z,101612.77
2018-08-04T19:37:19.638Z,101605.91
2018-08-04T19:39:49.168Z,101609.02
2018-08-04T19:42:18.648Z,101615.72
2018-08-04T19:44:48.194Z,101613.42
2018-08-04T19:47:17.481Z,101613.27
2018-08-04T19:49:47.482Z,101613.06
2018-08-04T19:52:16.814Z,101616.32
2018-08-04T19:54:46.078Z,101617.97
2018-08-04T19:57:17.506Z,101618.55
2018-08-04T19:59:47.183Z,101624.65
2018-08-04T20:02:16.709Z,101625.12
2018-08-04T20:04:46.200Z,101631.69
2018-08-04T20:07:16.261Z,101633.63
2018-08-04T20:09:45.740Z,101621.91
2018-08-04T20:12:15.036Z,101634.52
2018-08-04T20:14:44.361Z,101628.41
2018-08-04T20:17:13.700Z,101628.03
2018-08-04T20:19:43.946Z,101626.84
2018-08-04T20:22:17.190Z,101631.55
2018-08-04T20:24:47.167Z,101623.28
2018-08-04T20:27:16.598Z,101635.64
2018-08-04T20:29:46.124Z,101635.42
2018-08-04T20:32:15.457Z,101641.47
2018-08-04T20:34:44.869Z,101646.45
2018-08-04T20:37:14.240Z,101645.50
2018-08-04T20:39:43.586Z,101652.84
2018-08-04T20:42:12.974Z,101654.49
2018-08-04T20:44:42.582Z,101661.34
2018-08-04T20:47:11.886Z,101652.41
2018-08-04T20:49:41.248Z,101654.70
2018-08-04T20:52:10.597Z,101653.00
2018-08-04T20:54:39.958Z,101654.40
2018-08-04T20:57:09.430Z,101652.16
2018-08-04T20:59:38.774Z,101657.82
2018-08-04T21:02:08.165Z,101657.13
2018-08-04T21:04:37.867Z,101660.37
2018-08-04T21:07:07.895Z,101661.55
2018-08-04T21:09:37.119Z,101658.08
2018-08-04T21:12:06.507Z,101656.14
2018-08-04T21:14:35.858Z,101652.56
2018-08-04T21:17:05.176Z,101653.97
2018-08-04T21:19:34.455Z,101653.30
2018-08-04T21:22:03.835Z,101655.66
2018-08-04T21:24:33.154Z,101659.50
2018-08-04T21:27:02.421Z,101654.48
2018-08-04T21:29:32.320Z,101658.46
2018-08-04T21:32:01.635Z,101658.16
2018-08-04T21:34:30.966Z,101666.17
2018-08-04T21:37:00.267Z,101656.66
2018-08-04T21:39:29.600Z,101659.23
2018-08-04T21:41:58.903Z,101663.64
2018-08-04T21:44:28.509Z,101664.02
2018-08-04T21:46:57.933Z,101663.70
2018-08-04T21:49:27.332Z,101669.20
2018-08-04T21:51:56.986Z,101676.44
2018-08-04T21:54:26.291Z,101677.95
2018-08-04T21:56:55.602Z,101679.68
2018-08-04T21:59:24.924Z,101679.79
2018-08-04T22:01:54.348Z,101692.08
2018-08-04T22:04:23.602Z,101689.44
2018-08-04T22:08:12.515Z,101685.92
2018-08-04T22:10:41.823Z,101690.73
2018-08-04T22:13:11.169Z,101689.45
2018-08-04T22:15:40.467Z,101695.46
2018-08-04T22:18:09.711Z,101688.38
2018-08-04T22:20:39.002Z,101693.07
2018-08-04T22:23:08.431Z,101695.98
2018-08-04T22:25:37.762Z,101695.77
2018-08-04T22:28:07.627Z,101694.39
2018-08-04T22:30:37.450Z,101692.24
2018-08-04T22:33:07.235Z,101692.84
2018-08-04T22:35:36.495Z,101693.86
2018-08-04T22:38:05.899Z,101688.09
2018-08-04T22:40:35.205Z,101693.46
2018-08-04T22:43:04.529Z,101690.70
2018-08-04T22:46:02.579Z,101691.55
2018-08-04T22:48:32.321Z,101693.02
2018-08-04T22:51:01.651Z,101695.85
2018-08-04T22:53:31.176Z,101689.17
2018-08-04T22:56:00.474Z,101689.32
2018-08-04T22:58:29.811Z,101688.86
2018-08-04T23:00:59.236Z,101691.32
2018-08-04T23:03:35.045Z,101693.63
2018-08-04T23:06:04.814Z,101690.70
2018-08-04T23:08:34.058Z,101693.86
2018-08-04T23:11:03.406Z,101690.25
2018-08-04T23:13:32.715Z,101693.73
2018-08-04T23:16:02.011Z,101695.38
2018-08-04T23:18:31.345Z,101698.56
2018-08-04T23:21:00.749Z,101695.95
2018-08-04T23:23:30.035Z,101694.48
2018-08-04T23:25:59.337Z,101692.18
2018-08-04T23:28:29.064Z,101691.31
2018-08-04T23:30:58.629Z,101699.84
2018-08-04T23:33:27.906Z,101692.00
2018-08-04T23:35:57.310Z,101694.97
2018-08-04T23:38:26.679Z,101698.47
2018-08-04T23:40:55.999Z,101695.17
2018-08-04T23:43:25.303Z,101693.22
2018-08-04T23:45:54.614Z,101695.64
2018-08-04T23:48:24.418Z,101692.62
2018-08-04T23:50:54.199Z,101706.31
2018-08-04T23:53:23.461Z,101705.47
2018-08-04T23:55:52.784Z,101700.47
2018-08-04T23:58:22.093Z,101700.47
